sensor_id;sensor_type;location;lat;lon;timestamp;P1;durP1;ratioP1;P2;durP2;ratioP2
79640;SDS011;69115;49.904;14.390;2023-06-24T00:02:01;3.17;;;2.22;;
79640;SDS011;69115;49.904;14.390;2023-06-24T00:04:27;4.95;;;2.10;;
79640;SDS011;69115;49.904;14.390;2023-06-24T00:06:52;3.38;;;2.55;;
79640;SDS011;69115;49.904;14.390;2023-06-24T00:09:17;3.28;;;2.38;;
79640;SDS011;69115;49.904;14.390;2023-06-24T00:11:44;4.22;;;2.50;;
79640;SDS011;69115;49.904;14.390;2023-06-24T00:14:09;3.47;;;2.53;;
79640;SDS011;69115;49.904;14.390;2023-06-24T00:16:35;3.53;;;2.17;;
79640;SDS011;69115;49.904;14.390;2023-06-24T00:19:01;3.50;;;2.50;;
79640;SDS011;69115;49.904;14.390;2023-06-24T00:21:27;3.50;;;2.40;;
79640;SDS011;69115;49.904;14.390;2023-06-24T00:24:00;4.40;;;2.30;;
79640;SDS011;69115;49.904;14.390;2023-06-24T00:26:29;3.05;;;2.33;;
79640;SDS011;69115;49.904;14.390;2023-06-24T00:28:55;4.55;;;2.45;;
79640;SDS011;69115;49.904;14.390;2023-06-24T00:31:20;4.32;;;2.40;;
79640;SDS011;69115;49.904;14.390;2023-06-24T00:33:46;5.32;;;2.72;;
79640;SDS011;69115;49.904;14.390;2023-06-24T00:36:12;3.60;;;2.60;;
79640;SDS011;69115;49.904;14.390;2023-06-24T00:38:37;3.70;;;2.40;;
79640;SDS011;69115;49.904;14.390;2023-06-24T00:41:04;3.28;;;2.28;;
79640;SDS011;69115;49.904;14.390;2023-06-24T00:43:29;2.97;;;2.30;;
79640;SDS011;69115;49.904;14.390;2023-06-24T00:45:55;3.75;;;2.38;;
79640;SDS011;69115;49.904;14.390;2023-06-24T00:48:23;3.30;;;2.47;;
79640;SDS011;69115;49.904;14.390;2023-06-24T00:50:49;3.20;;;2.30;;
79640;SDS011;69115;49.904;14.390;2023-06-24T00:53:18;3.92;;;2.42;;
79640;SDS011;69115;49.904;14.390;2023-06-24T00:55:44;4.13;;;2.25;;
79640;SDS011;69115;49.904;14.390;2023-06-24T00:58:11;3.83;;;2.55;;
79640;SDS011;69115;49.904;14.390;2023-06-24T01:00:41;3.15;;;2.33;;
79640;SDS011;69115;49.904;14.390;2023-06-24T01:03:08;3.03;;;2.22;;
79640;SDS011;69115;49.904;14.390;2023-06-24T01:05:34;3.60;;;2.70;;
79640;SDS011;69115;49.904;14.390;2023-06-24T01:08:01;7.18;;;2.60;;
79640;SDS011;69115;49.904;14.390;2023-06-24T01:10:27;4.53;;;2.40;;
79640;SDS011;69115;49.904;14.390;2023-06-24T01:12:52;3.85;;;2.55;;
79640;SDS011;69115;49.904;14.390;2023-06-24T01:15:18;3.65;;;2.40;;
79640;SDS011;69115;49.904;14.390;2023-06-24T01:17:50;6.43;;;2.80;;
79640;SDS011;69115;49.904;14.390;2023-06-24T01:20:23;4.00;;;2.78;;
79640;SDS011;69115;49.904;14.390;2023-06-24T01:31:45;3.67;;;2.58;;
79640;SDS011;69115;49.904;14.390;2023-06-24T01:37:08;6.20;;;2.80;;
79640;SDS011;69115;49.904;14.390;2023-06-24T01:39:50;3.90;;;2.90;;
79640;SDS011;69115;49.904;14.390;2023-06-24T01:42:21;3.78;;;2.60;;
79640;SDS011;69115;49.904;14.390;2023-06-24T01:44:47;4.22;;;2.90;;
79640;SDS011;69115;49.904;14.390;2023-06-24T01:47:14;4.63;;;2.88;;
79640;SDS011;69115;49.904;14.390;2023-06-24T01:49:42;3.80;;;2.78;;
79640;SDS011;69115;49.904;14.390;2023-06-24T01:52:09;4.57;;;2.70;;
79640;SDS011;69115;49.904;14.390;2023-06-24T01:54:35;5.57;;;2.75;;
79640;SDS011;69115;49.904;14.390;2023-06-24T01:57:02;4.80;;;3.20;;
79640;SDS011;69115;49.904;14.390;2023-06-24T01:59:28;4.53;;;2.83;;
79640;SDS011;69115;49.904;14.390;2023-06-24T02:01:54;5.35;;;3.20;;
79640;SDS011;69115;49.904;14.390;2023-06-24T02:04:20;4.95;;;2.90;;
79640;SDS011;69115;49.904;14.390;2023-06-24T02:06:46;5.88;;;3.13;;
79640;SDS011;69115;49.904;14.390;2023-06-24T02:09:12;4.03;;;2.95;;
79640;SDS011;69115;49.904;14.390;2023-06-24T02:11:38;3.97;;;2.92;;
79640;SDS011;69115;49.904;14.390;2023-06-24T02:14:04;4.20;;;3.13;;
79640;SDS011;69115;49.904;14.390;2023-06-24T02:16:31;3.92;;;2.90;;
79640;SDS011;69115;49.904;14.390;2023-06-24T02:18:57;4.47;;;3.10;;
79640;SDS011;69115;49.904;14.390;2023-06-24T02:21:23;3.90;;;3.03;;
79640;SDS011;69115;49.904;14.390;2023-06-24T02:23:49;4.78;;;3.13;;
79640;SDS011;69115;49.904;14.390;2023-06-24T02:26:16;4.10;;;3.13;;
79640;SDS011;69115;49.904;14.390;2023-06-24T02:28:43;4.85;;;2.75;;
79640;SDS011;69115;49.904;14.390;2023-06-24T02:31:10;6.57;;;3.72;;
79640;SDS011;69115;49.904;14.390;2023-06-24T02:33:36;6.95;;;3.53;;
79640;SDS011;69115;49.904;14.390;2023-06-24T02:36:01;5.07;;;3.38;;
79640;SDS011;69115;49.904;14.390;2023-06-24T02:38:27;5.65;;;3.22;;
79640;SDS011;69115;49.904;14.390;2023-06-24T02:40:52;5.53;;;3.60;;
79640;SDS011;69115;49.904;14.390;2023-06-24T02:43:18;6.40;;;3.50;;
79640;SDS011;69115;49.904;14.390;2023-06-24T02:45:44;4.68;;;3.45;;
79640;SDS011;69115;49.904;14.390;2023-06-24T02:48:10;4.53;;;3.20;;
79640;SDS011;69115;49.904;14.390;2023-06-24T02:50:37;5.05;;;3.45;;
79640;SDS011;69115;49.904;14.390;2023-06-24T02:53:02;5.15;;;3.78;;
79640;SDS011;69115;49.904;14.390;2023-06-24T02:55:28;5.85;;;3.30;;
79640;SDS011;69115;49.904;14.390;2023-06-24T02:57:55;4.95;;;3.22;;
79640;SDS011;69115;49.904;14.390;2023-06-24T03:00:21;4.65;;;3.30;;
79640;SDS011;69115;49.904;14.390;2023-06-24T03:02:47;8.38;;;3.88;;
79640;SDS011;69115;49.904;14.390;2023-06-24T03:05:13;4.30;;;3.25;;
79640;SDS011;69115;49.904;14.390;2023-06-24T03:07:39;6.53;;;3.63;;
79640;SDS011;69115;49.904;14.390;2023-06-24T03:10:05;4.38;;;3.15;;
79640;SDS011;69115;49.904;14.390;2023-06-24T03:12:31;6.07;;;3.45;;
79640;SDS011;69115;49.904;14.390;2023-06-24T03:14:57;4.63;;;3.42;;
79640;SDS011;69115;49.904;14.390;2023-06-24T03:17:23;4.30;;;3.10;;
79640;SDS011;69115;49.904;14.390;2023-06-24T03:19:49;4.05;;;3.10;;
79640;SDS011;69115;49.904;14.390;2023-06-24T03:22:15;8.85;;;3.40;;
79640;SDS011;69115;49.904;14.390;2023-06-24T03:24:43;4.32;;;3.30;;
79640;SDS011;69115;49.904;14.390;2023-06-24T03:27:09;6.28;;;3.70;;
79640;SDS011;69115;49.904;14.390;2023-06-24T03:29:34;4.68;;;3.65;;
79640;SDS011;69115;49.904;14.390;2023-06-24T03:32:00;5.30;;;3.58;;
79640;SDS011;69115;49.904;14.390;2023-06-24T03:34:25;5.15;;;3.78;;
79640;SDS011;69115;49.904;14.390;2023-06-24T03:36:52;4.78;;;3.35;;
79640;SDS011;69115;49.904;14.390;2023-06-24T03:39:19;6.07;;;3.33;;
79640;SDS011;69115;49.904;14.390;2023-06-24T03:41:45;6.43;;;4.03;;
79640;SDS011;69115;49.904;14.390;2023-06-24T03:44:11;5.32;;;3.67;;
79640;SDS011;69115;49.904;14.390;2023-06-24T03:46:36;6.10;;;4.03;;
79640;SDS011;69115;49.904;14.390;2023-06-24T03:49:02;5.70;;;3.50;;
79640;SDS011;69115;49.904;14.390;2023-06-24T03:51:27;4.80;;;3.50;;
79640;SDS011;69115;49.904;14.390;2023-06-24T03:53:53;5.68;;;3.70;;
79640;SDS011;69115;49.904;14.390;2023-06-24T03:56:18;4.80;;;3.70;;
79640;SDS011;69115;49.904;14.390;2023-06-24T03:58:44;5.90;;;4.15;;
79640;SDS011;69115;49.904;14.390;2023-06-24T04:01:09;5.38;;;3.90;;
79640;SDS011;69115;49.904;14.390;2023-06-24T04:03:35;5.95;;;4.18;;
79640;SDS011;69115;49.904;14.390;2023-06-24T04:06:00;5.80;;;4.50;;
79640;SDS011;69115;49.904;14.390;2023-06-24T04:08:29;8.57;;;4.70;;
79640;SDS011;69115;49.904;14.390;2023-06-24T04:10:57;7.65;;;4.72;;
79640;SDS011;69115;49.904;14.390;2023-06-24T04:15:50;7.40;;;4.60;;
79640;SDS011;69115;49.904;14.390;2023-06-24T04:18:15;7.30;;;4.63;;
79640;SDS011;69115;49.904;14.390;2023-06-24T04:20:41;6.82;;;4.90;;
79640;SDS011;69115;49.904;14.390;2023-06-24T04:23:06;9.77;;;5.85;;
79640;SDS011;69115;49.904;14.390;2023-06-24T04:25:34;7.93;;;5.25;;
79640;SDS011;69115;49.904;14.390;2023-06-24T04:27:59;8.57;;;5.70;;
79640;SDS011;69115;49.904;14.390;2023-06-24T04:30:25;8.57;;;5.88;;
79640;SDS011;69115;49.904;14.390;2023-06-24T04:32:50;9.52;;;5.90;;
79640;SDS011;69115;49.904;14.390;2023-06-24T04:35:16;7.80;;;5.38;;
79640;SDS011;69115;49.904;14.390;2023-06-24T04:37:41;8.38;;;5.80;;
79640;SDS011;69115;49.904;14.390;2023-06-24T04:40:07;8.30;;;5.53;;
79640;SDS011;69115;49.904;14.390;2023-06-24T04:42:32;10.00;;;6.40;;
79640;SDS011;69115;49.904;14.390;2023-06-24T04:44:58;12.05;;;6.72;;
79640;SDS011;69115;49.904;14.390;2023-06-24T04:47:23;9.10;;;6.60;;
79640;SDS011;69115;49.904;14.390;2023-06-24T04:49:49;15.40;;;7.40;;
79640;SDS011;69115;49.904;14.390;2023-06-24T04:52:14;10.90;;;6.68;;
79640;SDS011;69115;49.904;14.390;2023-06-24T04:54:39;9.07;;;6.30;;
79640;SDS011;69115;49.904;14.390;2023-06-24T04:57:06;9.07;;;6.20;;
79640;SDS011;69115;49.904;14.390;2023-06-24T04:59:33;10.55;;;6.15;;
79640;SDS011;69115;49.904;14.390;2023-06-24T05:01:58;10.07;;;6.28;;
79640;SDS011;69115;49.904;14.390;2023-06-24T05:04:24;10.43;;;6.60;;
79640;SDS011;69115;49.904;14.390;2023-06-24T05:06:49;8.93;;;6.00;;
79640;SDS011;69115;49.904;14.390;2023-06-24T05:09:14;9.70;;;6.43;;
79640;SDS011;69115;49.904;14.390;2023-06-24T05:11:40;10.52;;;7.13;;
79640;SDS011;69115;49.904;14.390;2023-06-24T05:14:06;10.15;;;6.30;;
79640;SDS011;69115;49.904;14.390;2023-06-24T05:16:31;8.93;;;6.38;;
79640;SDS011;69115;49.904;14.390;2023-06-24T05:18:57;8.18;;;6.10;;
79640;SDS011;69115;49.904;14.390;2023-06-24T05:21:22;9.38;;;6.97;;
79640;SDS011;69115;49.904;14.390;2023-06-24T05:23:47;9.80;;;6.80;;
79640;SDS011;69115;49.904;14.390;2023-06-24T05:26:13;10.73;;;7.43;;
79640;SDS011;69115;49.904;14.390;2023-06-24T05:28:38;9.40;;;7.00;;
79640;SDS011;69115;49.904;14.390;2023-06-24T05:31:04;11.20;;;7.47;;
79640;SDS011;69115;49.904;14.390;2023-06-24T05:33:30;10.77;;;6.75;;
79640;SDS011;69115;49.904;14.390;2023-06-24T05:35:55;9.13;;;6.45;;
79640;SDS011;69115;49.904;14.390;2023-06-24T05:38:21;11.48;;;7.32;;
79640;SDS011;69115;49.904;14.390;2023-06-24T05:40:46;9.80;;;7.15;;
79640;SDS011;69115;49.904;14.390;2023-06-24T05:43:11;8.52;;;6.60;;
79640;SDS011;69115;49.904;14.390;2023-06-24T05:45:37;7.88;;;6.30;;
79640;SDS011;69115;49.904;14.390;2023-06-24T05:48:03;9.52;;;7.05;;
79640;SDS011;69115;49.904;14.390;2023-06-24T05:50:28;12.40;;;7.95;;
79640;SDS011;69115;49.904;14.390;2023-06-24T05:52:54;11.73;;;7.38;;
79640;SDS011;69115;49.904;14.390;2023-06-24T05:55:19;10.40;;;7.88;;
79640;SDS011;69115;49.904;14.390;2023-06-24T05:57:44;13.93;;;10.27;;
79640;SDS011;69115;49.904;14.390;2023-06-24T06:00:10;14.93;;;9.48;;
79640;SDS011;69115;49.904;14.390;2023-06-24T06:02:36;12.65;;;8.75;;
79640;SDS011;69115;49.904;14.390;2023-06-24T06:05:02;12.63;;;8.27;;
79640;SDS011;69115;49.904;14.390;2023-06-24T06:07:28;9.25;;;6.90;;
79640;SDS011;69115;49.904;14.390;2023-06-24T06:09:53;12.30;;;8.05;;
79640;SDS011;69115;49.904;14.390;2023-06-24T06:12:19;12.30;;;7.95;;
79640;SDS011;69115;49.904;14.390;2023-06-24T06:14:44;9.70;;;7.57;;
79640;SDS011;69115;49.904;14.390;2023-06-24T06:17:10;9.20;;;7.13;;
79640;SDS011;69115;49.904;14.390;2023-06-24T06:19:37;9.88;;;7.55;;
79640;SDS011;69115;49.904;14.390;2023-06-24T06:22:04;9.45;;;7.50;;
79640;SDS011;69115;49.904;14.390;2023-06-24T06:24:30;10.18;;;6.97;;
79640;SDS011;69115;49.904;14.390;2023-06-24T06:26:57;13.07;;;8.48;;
79640;SDS011;69115;49.904;14.390;2023-06-24T06:29:22;13.50;;;8.77;;
79640;SDS011;69115;49.904;14.390;2023-06-24T06:31:48;11.45;;;8.13;;
79640;SDS011;69115;49.904;14.390;2023-06-24T06:34:13;12.50;;;9.35;;
79640;SDS011;69115;49.904;14.390;2023-06-24T06:36:39;12.02;;;8.82;;
79640;SDS011;69115;49.904;14.390;2023-06-24T06:39:04;18.08;;;10.00;;
79640;SDS011;69115;49.904;14.390;2023-06-24T06:41:30;21.42;;;9.68;;
79640;SDS011;69115;49.904;14.390;2023-06-24T06:43:55;15.45;;;8.73;;
79640;SDS011;69115;49.904;14.390;2023-06-24T06:46:20;18.80;;;9.45;;
79640;SDS011;69115;49.904;14.390;2023-06-24T06:48:46;14.68;;;10.85;;
79640;SDS011;69115;49.904;14.390;2023-06-24T06:51:12;16.95;;;10.93;;
79640;SDS011;69115;49.904;14.390;2023-06-24T06:53:38;13.90;;;9.95;;
79640;SDS011;69115;49.904;14.390;2023-06-24T06:56:04;17.20;;;11.57;;
79640;SDS011;69115;49.904;14.390;2023-06-24T06:58:29;14.32;;;10.93;;
79640;SDS011;69115;49.904;14.390;2023-06-24T07:00:54;15.35;;;11.82;;
79640;SDS011;69115;49.904;14.390;2023-06-24T07:03:20;18.25;;;11.93;;
79640;SDS011;69115;49.904;14.390;2023-06-24T07:05:46;18.42;;;12.23;;
79640;SDS011;69115;49.904;14.390;2023-06-24T07:08:12;15.23;;;11.07;;
79640;SDS011;69115;49.904;14.390;2023-06-24T07:10:37;15.73;;;11.65;;
79640;SDS011;69115;49.904;14.390;2023-06-24T07:13:02;15.13;;;10.75;;
79640;SDS011;69115;49.904;14.390;2023-06-24T07:15:28;17.60;;;11.98;;
79640;SDS011;69115;49.904;14.390;2023-06-24T07:17:53;18.05;;;13.35;;
79640;SDS011;69115;49.904;14.390;2023-06-24T07:20:19;14.63;;;11.30;;
79640;SDS011;69115;49.904;14.390;2023-06-24T07:22:45;18.30;;;13.95;;
79640;SDS011;69115;49.904;14.390;2023-06-24T07:25:11;18.20;;;11.63;;
79640;SDS011;69115;49.904;14.390;2023-06-24T07:27:36;17.67;;;13.23;;
79640;SDS011;69115;49.904;14.390;2023-06-24T07:30:02;16.30;;;12.07;;
79640;SDS011;69115;49.904;14.390;2023-06-24T07:32:28;15.45;;;11.55;;
79640;SDS011;69115;49.904;14.390;2023-06-24T07:34:54;15.70;;;11.88;;
79640;SDS011;69115;49.904;14.390;2023-06-24T07:37:19;17.67;;;13.20;;
79640;SDS011;69115;49.904;14.390;2023-06-24T07:39:45;19.15;;;14.23;;
79640;SDS011;69115;49.904;14.390;2023-06-24T07:42:10;19.40;;;14.40;;
79640;SDS011;69115;49.904;14.390;2023-06-24T07:44:36;22.50;;;16.20;;
79640;SDS011;69115;49.904;14.390;2023-06-24T07:47:03;15.00;;;11.43;;
79640;SDS011;69115;49.904;14.390;2023-06-24T07:49:28;16.58;;;12.90;;
79640;SDS011;69115;49.904;14.390;2023-06-24T07:51:54;17.58;;;13.20;;
79640;SDS011;69115;49.904;14.390;2023-06-24T07:54:19;18.35;;;14.02;;
79640;SDS011;69115;49.904;14.390;2023-06-24T07:56:45;17.30;;;12.90;;
79640;SDS011;69115;49.904;14.390;2023-06-24T07:59:10;16.77;;;11.93;;
79640;SDS011;69115;49.904;14.390;2023-06-24T08:01:36;19.45;;;14.68;;
79640;SDS011;69115;49.904;14.390;2023-06-24T08:04:01;19.27;;;14.70;;
79640;SDS011;69115;49.904;14.390;2023-06-24T08:06:27;16.88;;;13.60;;
79640;SDS011;69115;49.904;14.390;2023-06-24T08:08:53;17.85;;;14.30;;
79640;SDS011;69115;49.904;14.390;2023-06-24T08:11:20;18.85;;;14.48;;
79640;SDS011;69115;49.904;14.390;2023-06-24T08:13:46;20.15;;;16.40;;
79640;SDS011;69115;49.904;14.390;2023-06-24T08:16:14;20.63;;;14.60;;
79640;SDS011;69115;49.904;14.390;2023-06-24T08:18:41;20.88;;;16.13;;
79640;SDS011;69115;49.904;14.390;2023-06-24T08:21:06;19.90;;;16.67;;
79640;SDS011;69115;49.904;14.390;2023-06-24T08:23:32;20.98;;;17.17;;
79640;SDS011;69115;49.904;14.390;2023-06-24T08:25:57;23.45;;;17.98;;
79640;SDS011;69115;49.904;14.390;2023-06-24T08:28:23;17.45;;;14.40;;
79640;SDS011;69115;49.904;14.390;2023-06-24T08:30:48;18.15;;;15.35;;
79640;SDS011;69115;49.904;14.390;2023-06-24T08:33:13;17.25;;;14.00;;
79640;SDS011;69115;49.904;14.390;2023-06-24T08:35:39;19.88;;;15.45;;
79640;SDS011;69115;49.904;14.390;2023-06-24T08:38:04;19.30;;;15.40;;
79640;SDS011;69115;49.904;14.390;2023-06-24T08:40:30;14.85;;;12.90;;
79640;SDS011;69115;49.904;14.390;2023-06-24T08:42:56;18.30;;;15.07;;
79640;SDS011;69115;49.904;14.390;2023-06-24T08:45:23;39.45;;;17.38;;
79640;SDS011;69115;49.904;14.390;2023-06-24T08:47:49;27.42;;;16.85;;
79640;SDS011;69115;49.904;14.390;2023-06-24T08:50:15;16.55;;;14.15;;
79640;SDS011;69115;49.904;14.390;2023-06-24T08:52:49;17.15;;;14.38;;
79640;SDS011;69115;49.904;14.390;2023-06-24T08:55:16;17.90;;;14.50;;
79640;SDS011;69115;49.904;14.390;2023-06-24T08:57:42;17.88;;;14.88;;
79640;SDS011;69115;49.904;14.390;2023-06-24T09:00:08;15.68;;;14.00;;
79640;SDS011;69115;49.904;14.390;2023-06-24T09:02:40;18.95;;;15.50;;
79640;SDS011;69115;49.904;14.390;2023-06-24T09:05:06;16.58;;;14.35;;
79640;SDS011;69115;49.904;14.390;2023-06-24T09:07:32;13.60;;;11.55;;
79640;SDS011;69115;49.904;14.390;2023-06-24T09:09:58;17.10;;;15.23;;
79640;SDS011;69115;49.904;14.390;2023-06-24T09:12:27;16.77;;;14.18;;
79640;SDS011;69115;49.904;14.390;2023-06-24T09:14:52;15.43;;;13.15;;
79640;SDS011;69115;49.904;14.390;2023-06-24T09:17:18;16.50;;;13.77;;
79640;SDS011;69115;49.904;14.390;2023-06-24T09:19:47;17.15;;;14.45;;
79640;SDS011;69115;49.904;14.390;2023-06-24T09:22:16;17.98;;;14.98;;
79640;SDS011;69115;49.904;14.390;2023-06-24T09:24:45;14.43;;;12.82;;
79640;SDS011;69115;49.904;14.390;2023-06-24T09:27:15;16.98;;;15.18;;
79640;SDS011;69115;49.904;14.390;2023-06-24T09:29:44;15.70;;;12.95;;
79640;SDS011;69115;49.904;14.390;2023-06-24T09:32:12;18.55;;;14.75;;
79640;SDS011;69115;49.904;14.390;2023-06-24T09:34:37;15.90;;;13.20;;
79640;SDS011;69115;49.904;14.390;2023-06-24T09:37:03;16.10;;;12.70;;
79640;SDS011;69115;49.904;14.390;2023-06-24T09:39:34;18.58;;;14.45;;
79640;SDS011;69115;49.904;14.390;2023-06-24T09:42:03;18.38;;;14.50;;
79640;SDS011;69115;49.904;14.390;2023-06-24T09:44:29;14.07;;;12.57;;
79640;SDS011;69115;49.904;14.390;2023-06-24T09:46:55;17.25;;;13.93;;
79640;SDS011;69115;49.904;14.390;2023-06-24T09:49:21;16.33;;;14.52;;
79640;SDS011;69115;49.904;14.390;2023-06-24T09:51:48;16.90;;;14.80;;
79640;SDS011;69115;49.904;14.390;2023-06-24T09:54:19;17.75;;;15.63;;
79640;SDS011;69115;49.904;14.390;2023-06-24T09:56:47;15.73;;;14.13;;
79640;SDS011;69115;49.904;14.390;2023-06-24T09:59:14;18.90;;;15.30;;
79640;SDS011;69115;49.904;14.390;2023-06-24T10:01:41;15.40;;;13.55;;
79640;SDS011;69115;49.904;14.390;2023-06-24T10:04:07;17.05;;;15.25;;
79640;SDS011;69115;49.904;14.390;2023-06-24T10:06:33;15.55;;;12.77;;
79640;SDS011;69115;49.904;14.390;2023-06-24T10:09:00;14.32;;;12.70;;
79640;SDS011;69115;49.904;14.390;2023-06-24T10:11:25;15.30;;;13.63;;
79640;SDS011;69115;49.904;14.390;2023-06-24T10:13:51;13.88;;;12.45;;
79640;SDS011;69115;49.904;14.390;2023-06-24T10:16:17;13.60;;;12.20;;
79640;SDS011;69115;49.904;14.390;2023-06-24T10:18:43;12.63;;;11.32;;
79640;SDS011;69115;49.904;14.390;2023-06-24T10:21:09;15.07;;;13.38;;
79640;SDS011;69115;49.904;14.390;2023-06-24T10:26:07;13.88;;;11.98;;
79640;SDS011;69115;49.904;14.390;2023-06-24T10:37:04;12.23;;;10.77;;
79640;SDS011;69115;49.904;14.390;2023-06-24T10:44:48;11.40;;;10.18;;
79640;SDS011;69115;49.904;14.390;2023-06-24T10:47:14;15.77;;;9.80;;
79640;SDS011;69115;49.904;14.390;2023-06-24T10:49:40;10.23;;;9.10;;
79640;SDS011;69115;49.904;14.390;2023-06-24T10:52:09;9.98;;;8.95;;
79640;SDS011;69115;49.904;14.390;2023-06-24T10:54:36;9.52;;;8.23;;
79640;SDS011;69115;49.904;14.390;2023-06-24T10:57:03;10.55;;;8.75;;
79640;SDS011;69115;49.904;14.390;2023-06-24T10:59:35;12.60;;;9.73;;
79640;SDS011;69115;49.904;14.390;2023-06-24T11:02:01;11.07;;;8.10;;
79640;SDS011;69115;49.904;14.390;2023-06-24T11:04:26;13.48;;;8.68;;
79640;SDS011;69115;49.904;14.390;2023-06-24T11:07:01;13.88;;;8.65;;
79640;SDS011;69115;49.904;14.390;2023-06-24T11:09:27;8.85;;;7.95;;
79640;SDS011;69115;49.904;14.390;2023-06-24T11:11:53;48.72;;;11.30;;
79640;SDS011;69115;49.904;14.390;2023-06-24T11:14:21;11.10;;;8.68;;
79640;SDS011;69115;49.904;14.390;2023-06-24T11:16:47;15.45;;;8.35;;
79640;SDS011;69115;49.904;14.390;2023-06-24T11:19:13;20.38;;;9.38;;
79640;SDS011;69115;49.904;14.390;2023-06-24T11:21:38;32.28;;;9.82;;
79640;SDS011;69115;49.904;14.390;2023-06-24T11:24:04;14.10;;;7.45;;
79640;SDS011;69115;49.904;14.390;2023-06-24T11:26:30;14.70;;;7.70;;
79640;SDS011;69115;49.904;14.390;2023-06-24T11:28:57;19.83;;;8.38;;
79640;SDS011;69115;49.904;14.390;2023-06-24T11:31:25;10.95;;;7.60;;
79640;SDS011;69115;49.904;14.390;2023-06-24T11:33:51;17.45;;;8.32;;
79640;SDS011;69115;49.904;14.390;2023-06-24T11:36:19;11.32;;;7.20;;
79640;SDS011;69115;49.904;14.390;2023-06-24T11:38:45;15.80;;;7.93;;
79640;SDS011;69115;49.904;14.390;2023-06-24T11:41:11;279.95;;;22.50;;
79640;SDS011;69115;49.904;14.390;2023-06-24T11:43:37;48.70;;;10.15;;
79640;SDS011;69115;49.904;14.390;2023-06-24T11:46:10;62.88;;;9.65;;
79640;SDS011;69115;49.904;14.390;2023-06-24T11:48:42;16.00;;;6.80;;
79640;SDS011;69115;49.904;14.390;2023-06-24T11:51:13;16.33;;;7.25;;
79640;SDS011;69115;49.904;14.390;2023-06-24T11:53:42;9.52;;;7.20;;
79640;SDS011;69115;49.904;14.390;2023-06-24T11:56:09;11.40;;;7.13;;
79640;SDS011;69115;49.904;14.390;2023-06-24T11:58:35;9.23;;;6.00;;
79640;SDS011;69115;49.904;14.390;2023-06-24T12:01:01;8.75;;;6.85;;
79640;SDS011;69115;49.904;14.390;2023-06-24T12:03:27;7.13;;;6.13;;
79640;SDS011;69115;49.904;14.390;2023-06-24T12:05:54;9.32;;;6.72;;
79640;SDS011;69115;49.904;14.390;2023-06-24T12:08:19;7.85;;;6.15;;
79640;SDS011;69115;49.904;14.390;2023-06-24T12:10:45;9.63;;;6.85;;
79640;SDS011;69115;49.904;14.390;2023-06-24T12:13:10;8.35;;;5.60;;
79640;SDS011;69115;49.904;14.390;2023-06-24T12:15:36;40.15;;;9.07;;
79640;SDS011;69115;49.904;14.390;2023-06-24T12:18:02;18.85;;;6.78;;
79640;SDS011;69115;49.904;14.390;2023-06-24T12:20:28;11.80;;;6.07;;
79640;SDS011;69115;49.904;14.390;2023-06-24T12:22:55;7.28;;;5.97;;
79640;SDS011;69115;49.904;14.390;2023-06-24T12:25:20;7.97;;;5.60;;
79640;SDS011;69115;49.904;14.390;2023-06-24T12:27:46;6.30;;;5.20;;
79640;SDS011;69115;49.904;14.390;2023-06-24T12:30:13;7.45;;;5.18;;
79640;SDS011;69115;49.904;14.390;2023-06-24T12:32:39;7.20;;;6.07;;
79640;SDS011;69115;49.904;14.390;2023-06-24T12:35:05;9.70;;;5.53;;
79640;SDS011;69115;49.904;14.390;2023-06-24T12:37:33;5.82;;;4.63;;
79640;SDS011;69115;49.904;14.390;2023-06-24T12:39:59;7.10;;;5.18;;
79640;SDS011;69115;49.904;14.390;2023-06-24T12:42:25;6.13;;;5.13;;
79640;SDS011;69115;49.904;14.390;2023-06-24T12:44:51;9.90;;;5.65;;
79640;SDS011;69115;49.904;14.390;2023-06-24T12:47:17;7.22;;;5.22;;
79640;SDS011;69115;49.904;14.390;2023-06-24T12:49:43;6.55;;;5.55;;
79640;SDS011;69115;49.904;14.390;2023-06-24T12:52:08;6.15;;;5.25;;
79640;SDS011;69115;49.904;14.390;2023-06-24T12:54:34;6.25;;;5.07;;
79640;SDS011;69115;49.904;14.390;2023-06-24T12:57:00;7.57;;;5.43;;
79640;SDS011;69115;49.904;14.390;2023-06-24T12:59:29;9.90;;;5.78;;
79640;SDS011;69115;49.904;14.390;2023-06-24T13:01:55;8.10;;;5.43;;
79640;SDS011;69115;49.904;14.390;2023-06-24T13:04:20;9.48;;;5.43;;
79640;SDS011;69115;49.904;14.390;2023-06-24T13:06:47;6.78;;;5.32;;
79640;SDS011;69115;49.904;14.390;2023-06-24T13:09:14;6.20;;;5.10;;
79640;SDS011;69115;49.904;14.390;2023-06-24T13:11:39;7.53;;;5.38;;
79640;SDS011;69115;49.904;14.390;2023-06-24T13:14:05;9.88;;;5.82;;
79640;SDS011;69115;49.904;14.390;2023-06-24T13:16:31;6.20;;;5.40;;
79640;SDS011;69115;49.904;14.390;2023-06-24T13:18:56;9.80;;;5.70;;
79640;SDS011;69115;49.904;14.390;2023-06-24T13:21:22;7.00;;;5.93;;
79640;SDS011;69115;49.904;14.390;2023-06-24T13:23:48;6.85;;;5.93;;
79640;SDS011;69115;49.904;14.390;2023-06-24T13:26:14;7.05;;;5.75;;
79640;SDS011;69115;49.904;14.390;2023-06-24T13:28:39;6.93;;;5.75;;
79640;SDS011;69115;49.904;14.390;2023-06-24T13:31:05;7.28;;;5.53;;
79640;SDS011;69115;49.904;14.390;2023-06-24T13:33:31;6.90;;;5.55;;
79640;SDS011;69115;49.904;14.390;2023-06-24T13:35:56;7.80;;;6.00;;
79640;SDS011;69115;49.904;14.390;2023-06-24T13:38:22;7.88;;;6.00;;
79640;SDS011;69115;49.904;14.390;2023-06-24T13:40:47;6.43;;;5.38;;
79640;SDS011;69115;49.904;14.390;2023-06-24T13:43:13;10.35;;;6.20;;
79640;SDS011;69115;49.904;14.390;2023-06-24T13:45:38;7.80;;;5.80;;
79640;SDS011;69115;49.904;14.390;2023-06-24T13:48:03;8.15;;;5.85;;
79640;SDS011;69115;49.904;14.390;2023-06-24T13:50:29;9.55;;;5.88;;
79640;SDS011;69115;49.904;14.390;2023-06-24T13:52:55;7.80;;;5.72;;
79640;SDS011;69115;49.904;14.390;2023-06-24T13:55:20;7.00;;;5.72;;
79640;SDS011;69115;49.904;14.390;2023-06-24T13:57:46;7.65;;;5.95;;
79640;SDS011;69115;49.904;14.390;2023-06-24T14:00:12;6.70;;;5.32;;
79640;SDS011;69115;49.904;14.390;2023-06-24T14:02:38;7.82;;;5.63;;
79640;SDS011;69115;49.904;14.390;2023-06-24T14:05:04;7.47;;;5.10;;
79640;SDS011;69115;49.904;14.390;2023-06-24T14:07:30;8.13;;;5.25;;
79640;SDS011;69115;49.904;14.390;2023-06-24T14:09:56;6.88;;;5.53;;
79640;SDS011;69115;49.904;14.390;2023-06-24T14:12:21;8.18;;;5.65;;
79640;SDS011;69115;49.904;14.390;2023-06-24T14:14:47;9.10;;;5.50;;
79640;SDS011;69115;49.904;14.390;2023-06-24T14:17:12;6.38;;;4.90;;
79640;SDS011;69115;49.904;14.390;2023-06-24T14:19:38;8.20;;;5.95;;
79640;SDS011;69115;49.904;14.390;2023-06-24T14:22:06;7.03;;;5.55;;
79640;SDS011;69115;49.904;14.390;2023-06-24T14:24:32;7.63;;;6.40;;
79640;SDS011;69115;49.904;14.390;2023-06-24T14:26:58;6.68;;;5.30;;
79640;SDS011;69115;49.904;14.390;2023-06-24T14:29:23;12.48;;;6.85;;
79640;SDS011;69115;49.904;14.390;2023-06-24T14:31:50;8.95;;;5.88;;
79640;SDS011;69115;49.904;14.390;2023-06-24T14:34:16;7.53;;;5.75;;
79640;SDS011;69115;49.904;14.390;2023-06-24T14:36:43;7.55;;;6.25;;
79640;SDS011;69115;49.904;14.390;2023-06-24T14:39:09;6.28;;;5.45;;
79640;SDS011;69115;49.904;14.390;2023-06-24T14:41:34;7.43;;;5.60;;
79640;SDS011;69115;49.904;14.390;2023-06-24T14:44:00;9.45;;;6.32;;
79640;SDS011;69115;49.904;14.390;2023-06-24T14:46:25;6.82;;;5.80;;
79640;SDS011;69115;49.904;14.390;2023-06-24T14:48:51;8.20;;;6.65;;
79640;SDS011;69115;49.904;14.390;2023-06-24T14:51:16;8.98;;;6.10;;